Time;durP1;ratioP1;P1;durP2;ratioP2;P2;SDS_P1;SDS_P2;PMS_P1;PMS_P2;Temp;Humidity;BMP_temperature;BMP_pressure;BME280_temperature;BME280_humidity;BME280_pressure;Samples;Min_cycle;Max_cycle;Signal;HPM_P1;HPM_P2
2022/03/03 00:00:09;;;;;;;23.67;13.85;;;;;;;2.08;100.00;95152.47;4956329;29;20085;-66
2022/03/03 00:02:37;;;;;;;24.52;12.95;;;;;;;2.07;100.00;95150.03;4961034;28;20027;-66
2022/03/03 00:05:04;;;;;;;26.00;14.35;;;;;;;2.02;100.00;95155.94;4960845;28;20027;-66
2022/03/03 00:07:34;;;;;;;23.75;13.88;;;;;;;2.04;100.00;95145.97;4957476;28;20489;-65
2022/03/03 00:10:00;;;;;;;28.00;13.90;;;;;;;2.06;100.00;95153.69;4957408;28;20038;-65
2022/03/03 00:12:25;;;;;;;24.35;13.40;;;;;;;1.98;100.00;95150.28;4957418;28;20035;-65
2022/03/03 00:14:53;;;;;;;24.50;13.18;;;;;;;1.96;100.00;95151.50;4957165;28;20471;-65
2022/03/03 00:17:19;;;;;;;24.30;13.43;;;;;;;1.98;100.00;95162.69;4957357;28;20031;-66
2022/03/03 00:19:44;;;;;;;25.67;13.88;;;;;;;1.94;100.00;95158.81;4957116;28;20162;-65
2022/03/03 00:22:12;;;;;;;22.80;13.00;;;;;;;1.88;100.00;95162.31;4957320;28;20035;-65
2022/03/03 00:24:40;;;;;;;23.67;14.45;;;;;;;1.80;100.00;95157.25;4957058;28;20023;-66
2022/03/03 00:27:19;;;;;;;22.83;12.70;;;;;;;1.70;100.00;95153.22;4962908;28;20023;-65
2022/03/03 00:29:44;;;;;;;23.30;13.23;;;;;;;1.61;100.00;95149.16;4962073;28;20505;-66
2022/03/03 00:32:09;;;;;;;25.30;13.35;;;;;;;1.54;100.00;95145.75;4976315;28;20114;-66
2022/03/03 00:34:35;;;;;;;24.90;13.75;;;;;;;1.47;100.00;95141.50;4976175;28;20027;-65
2022/03/03 00:37:00;;;;;;;24.80;13.95;;;;;;;1.35;100.00;95128.13;4976241;28;20027;-65
2022/03/03 00:39:25;;;;;;;28.30;14.52;;;;;;;1.21;100.00;95116.81;4976107;28;20462;-66
2022/03/03 00:41:51;;;;;;;23.02;12.77;;;;;;;1.06;100.00;95111.72;4975120;28;20030;-66
2022/03/03 00:44:19;;;;;;;24.13;13.77;;;;;;;0.85;100.00;95104.03;4975933;28;20027;-66
2022/03/03 00:46:47;;;;;;;25.98;13.95;;;;;;;0.75;100.00;95103.63;4964497;28;20095;-66
2022/03/03 00:49:19;;;;;;;24.58;14.07;;;;;;;0.68;100.00;95093.13;4955582;29;20039;-66
2022/03/03 00:51:50;;;;;;;22.25;12.82;;;;;;;0.58;100.00;95096.16;4955588;29;20038;-66
2022/03/03 00:54:21;;;;;;;23.25;13.27;;;;;;;0.48;100.00;95090.47;4956192;28;20051;-66
2022/03/03 00:56:54;;;;;;;24.58;12.82;;;;;;;0.36;100.00;95086.00;4960343;28;20390;-65
2022/03/03 00:59:19;;;;;;;21.65;12.90;;;;;;;0.25;100.00;95079.50;4963626;28;20023;-65
2022/03/03 01:01:47;;;;;;;20.45;12.15;;;;;;;0.15;100.00;95082.53;4956489;28;20114;-66
2022/03/03 01:04:13;;;;;;;22.58;11.82;;;;;;;0.06;100.00;95073.19;4971679;28;20115;-65
2022/03/03 01:06:39;;;;;;;24.75;13.60;;;;;;;-0.04;100.00;95068.31;4989679;28;20061;-65
2022/03/03 01:09:07;;;;;;;22.17;13.00;;;;;;;-0.16;100.00;95056.75;4974955;28;20449;-65
2022/03/03 01:11:33;;;;;;;24.08;13.60;;;;;;;-0.22;100.00;95052.25;4975442;28;20494;-65
2022/03/03 01:14:01;;;;;;;25.27;13.10;;;;;;;-0.31;100.00;95048.22;4990378;28;20026;-65
2022/03/03 01:16:28;;;;;;;22.70;13.55;;;;;;;-0.42;100.00;95040.91;4975520;28;20031;-65
2022/03/03 01:18:54;;;;;;;22.35;12.40;;;;;;;-0.54;100.00;95022.25;4975469;28;20482;-65
2022/03/03 01:21:22;;;;;;;21.88;13.05;;;;;;;-0.67;100.00;95020.34;4990345;28;20038;-66
2022/03/03 01:23:53;;;;;;;24.73;14.18;;;;;;;-0.77;100.00;95017.28;4975403;28;20101;-66
2022/03/03 01:26:19;;;;;;;25.15;14.20;;;;;;;-0.83;100.00;95007.56;4975223;28;20045;-66
2022/03/03 01:28:56;;;;;;;28.25;14.10;;;;;;;-0.89;100.00;95001.25;4974050;28;20038;-66
2022/03/03 01:31:25;;;;;;;22.98;13.57;;;;;;;-0.93;100.00;94993.97;4975330;28;20429;-66
2022/03/03 01:33:56;;;;;;;22.80;13.25;;;;;;;-0.96;100.00;94981.22;4975037;28;20367;-65
2022/03/03 01:36:25;;;;;;;22.92;13.43;;;;;;;-1.03;100.00;94969.84;4975155;28;20038;-65
2022/03/03 01:38:52;;;;;;;25.52;13.63;;;;;;;-1.10;100.00;94971.63;4973692;28;20397;-66
2022/03/03 01:41:21;;;;;;;25.40;14.05;;;;;;;-1.20;100.00;94966.72;4975042;28;20034;-66
2022/03/03 01:43:46;;;;;;;23.58;13.48;;;;;;;-1.28;100.00;94951.94;4989786;28;20498;-66
2022/03/03 01:46:16;;;;;;;24.42;13.88;;;;;;;-1.30;100.00;94945.28;4974939;28;20038;-65
2022/03/03 01:48:45;;;;;;;24.40;14.20;;;;;;;-1.39;100.00;94944.63;4973632;28;20389;-66
2022/03/03 01:51:13;;;;;;;22.83;14.02;;;;;;;-1.45;100.00;94940.13;4975249;28;20125;-65
2022/03/03 01:53:42;;;;;;;26.40;13.70;;;;;;;-1.45;100.00;94940.13;4972675;28;20114;-66
2022/03/03 01:56:11;;;;;;;22.17;13.02;;;;;;;-1.46;100.00;94941.94;4969781;28;20059;-65
2022/03/03 01:58:44;;;;;;;23.88;13.82;;;;;;;-1.45;100.00;94932.25;4967032;28;20525;-65
2022/03/03 02:01:18;;;;;;;24.25;14.07;;;;;;;-1.47;100.00;94926.38;4954246;29;20486;-65
2022/03/03 02:03:46;;;;;;;25.27;13.70;;;;;;;-1.54;100.00;94926.34;4960503;28;20568;-66
2022/03/03 02:08:57;;;;;;;26.33;13.73;;;;;;;-1.70;100.00;94934.53;4955209;28;20114;-65
2022/03/03 02:11:26;;;;;;;26.42;13.68;;;;;;;-1.81;100.00;94925.38;4955042;28;20489;-65
2022/03/03 02:13:54;;;;;;;25.63;14.05;;;;;;;-1.88;100.00;94927.16;4955048;28;20028;-65
2022/03/03 02:16:21;;;;;;;22.45;13.23;;;;;;;-1.94;100.00;94935.81;4955026;28;20098;-66
2022/03/03 02:18:50;;;;;;;22.80;13.90;;;;;;;-1.98;100.00;94934.53;4953525;28;20470;-66
2022/03/03 02:21:18;;;;;;;23.52;13.70;;;;;;;-1.98;100.00;94937.16;4954978;28;20438;-66
2022/03/03 02:26:32;;;;;;;25.38;14.52;;;;;;;-2.01;100.00;94932.31;4962613;28;20057;-66
2022/03/03 02:29:00;;;;;;;25.40;13.32;;;;;;;-2.01;100.00;94944.63;4974083;28;20035;-65
2022/03/03 02:31:29;;;;;;;25.58;14.80;;;;;;;-2.02;100.00;94943.81;4974218;28;20022;-66
2022/03/03 02:33:57;;;;;;;25.85;13.15;;;;;;;-2.02;100.00;94954.31;4973950;28;20031;-65
2022/03/03 02:36:31;;;;;;;25.55;14.25;;;;;;;-2.06;100.00;94943.38;4974063;28;20486;-65
2022/03/03 02:39:00;;;;;;;27.52;14.45;;;;;;;-2.08;100.00;94949.81;4973965;28;20109;-65
2022/03/03 02:41:26;;;;;;;26.30;14.07;;;;;;;-2.13;100.00;94950.38;4973907;28;20050;-65
2022/03/03 02:43:56;;;;;;;32.45;14.50;;;;;;;-2.16;100.00;94950.78;4973875;28;20030;-65
2022/03/03 02:46:27;;;;;;;26.83;14.40;;;;;;;-2.13;100.00;94952.19;4974045;28;20035;-65
2022/03/03 02:48:52;;;;;;;26.60;14.95;;;;;;;-2.06;100.00;94955.69;4973870;28;20026;-65
2022/03/03 02:51:18;;;;;;;28.60;14.15;;;;;;;-2.06;100.00;94956.50;4973956;28;20081;-66
2022/03/03 02:53:46;;;;;;;27.27;15.18;;;;;;;-2.05;100.00;94965.19;4973701;28;20490;-66
2022/03/03 02:56:19;;;;;;;27.02;13.93;;;;;;;-2.09;100.00;94966.56;4973332;28;20464;-65
2022/03/03 02:58:45;;;;;;;25.17;13.48;;;;;;;-2.12;100.00;94970.38;4954510;28;20062;-66
2022/03/03 03:01:16;;;;;;;25.25;13.95;;;;;;;-2.13;100.00;94975.81;4954546;28;20439;-66
2022/03/03 03:03:41;;;;;;;24.65;14.35;;;;;;;-2.14;100.00;94977.63;4949443;28;20509;-66
2022/03/03 03:06:07;;;;;;;24.63;14.32;;;;;;;-2.13;100.00;94979.25;4972373;28;20030;-65
2022/03/03 03:08:33;;;;;;;25.75;14.00;;;;;;;-2.17;100.00;94988.50;4973502;28;20034;-65
2022/03/03 03:11:18;;;;;;;27.25;14.52;;;;;;;-2.18;100.00;94992.09;4973576;28;20067;-66
2022/03/03 03:14:04;;;;;;;29.45;14.75;;;;;;;-2.22;100.00;94998.75;4972267;28;20390;-66
2022/03/03 03:16:32;;;;;;;29.10;14.20;;;;;;;-2.27;100.00;95005.56;4973443;28;20606;-65
2022/03/03 03:19:03;;;;;;;26.38;14.60;;;;;;;-2.33;100.00;95007.94;4973466;28;20121;-65
2022/03/03 03:21:34;;;;;;;27.48;14.32;;;;;;;-2.39;100.00;95005.22;4973607;28;20065;-66
2022/03/03 03:24:02;;;;;;;24.70;14.25;;;;;;;-2.45;100.00;95011.22;4972519;28;20105;-65
2022/03/03 03:26:27;;;;;;;29.05;15.52;;;;;;;-2.48;100.00;95001.94;4973518;28;20026;-65
2022/03/03 03:28:52;;;;;;;28.60;14.70;;;;;;;-2.42;100.00;95010.84;4972253;28;20027;-64
2022/03/03 03:31:18;;;;;;;28.88;14.90;;;;;;;-2.35;100.00;95015.19;4975387;28;20054;-64
2022/03/03 03:33:53;;;;;;;28.83;14.95;;;;;;;-2.35;100.00;95015.19;4977078;28;20024;-65
2022/03/03 03:36:24;;;;;;;28.38;14.85;;;;;;;-2.35;100.00;95017.81;4976148;28;20031;-65
2022/03/03 03:38:58;;;;;;;30.77;16.05;;;;;;;-2.35;100.00;95014.38;4977297;28;20031;-64
2022/03/03 03:41:26;;;;;;;26.70;14.88;;;;;;;-2.34;100.00;95027.28;4976127;28;20456;-64
2022/03/03 03:43:52;;;;;;;28.63;15.40;;;;;;;-2.36;100.00;95024.03;4977068;28;20385;-64
2022/03/03 03:46:20;;;;;;;29.58;15.52;;;;;;;-2.31;100.00;95028.72;4977259;28;20023;-64
2022/03/03 03:48:54;;;;;;;31.00;16.15;;;;;;;-2.27;100.00;95034.44;4977037;28;20474;-64
2022/03/03 03:51:24;;;;;;;25.05;14.93;;;;;;;-2.22;100.00;95034.66;4977103;28;20507;-64
2022/03/03 03:53:52;;;;;;;31.27;16.67;;;;;;;-2.09;100.00;95032.97;4977022;28;20023;-64
2022/03/03 03:56:17;;;;;;;30.58;15.98;;;;;;;-1.99;100.00;95031.84;4976892;28;20130;-63
2022/03/03 03:58:52;;;;;;;32.08;16.35;;;;;;;-1.97;100.00;95035.09;4969455;28;20106;-63
2022/03/03 04:01:20;;;;;;;26.58;15.52;;;;;;;-2.01;100.00;95032.03;4957651;28;20027;-63
2022/03/03 04:03:47;;;;;;;28.73;15.88;;;;;;;-1.99;100.00;95031.84;4969200;28;20027;-63
2022/03/03 04:06:12;;;;;;;31.50;16.77;;;;;;;-1.98;100.00;95028.22;4976833;28;20030;-63
2022/03/03 04:08:40;;;;;;;31.02;17.08;;;;;;;-1.98;100.00;95029.03;4976786;28;20019;-64
2022/03/03 04:11:14;;;;;;;28.27;16.05;;;;;;;-1.93;100.00;95025.84;4976705;28;20026;-63
2022/03/03 04:13:40;;;;;;;30.80;16.33;;;;;;;-1.93;100.00;95028.47;4976570;28;20035;-63
2022/03/03 04:16:11;;;;;;;27.17;15.35;;;;;;;-1.99;100.00;95022.16;4976651;28;20029;-63
2022/03/03 04:18:47;;;;;;;33.78;15.10;;;;;;;-2.03;100.00;95031.41;4976761;28;20106;-63
2022/03/03 04:21:18;;;;;;;33.95;16.02;;;;;;;-2.06;100.00;95037.06;4975399;28;20390;-63
2022/03/03 04:23:46;;;;;;;31.70;16.80;;;;;;;-2.06;100.00;95037.88;4976554;28;20041;-63
2022/03/03 04:26:17;;;;;;;27.88;15.57;;;;;;;-2.09;100.00;95034.78;4975186;28;20438;-63
2022/03/03 04:28:42;;;;;;;30.88;15.88;;;;;;;-2.13;100.00;95031.72;4976545;28;20119;-63
2022/03/03 04:31:08;;;;;;;29.77;15.75;;;;;;;-2.17;100.00;95030.50;4976719;28;20394;-63
2022/03/03 04:33:37;;;;;;;27.90;14.93;;;;;;;-2.20;100.00;95030.03;4975412;28;20030;-62
2022/03/03 04:36:04;;;;;;;28.38;14.45;;;;;;;-2.23;100.00;95031.22;4976255;28;20498;-62
2022/03/03 04:38:29;;;;;;;29.80;15.25;;;;;;;-2.23;100.00;95028.59;4975078;28;20049;-62
2022/03/03 04:40:57;;;;;;;28.98;15.90;;;;;;;-2.19;100.00;95037.72;4973550;28;20494;-62
2022/03/03 04:43:23;;;;;;;28.25;15.18;;;;;;;-2.17;100.00;95033.13;4973963;28;20035;-62
2022/03/03 04:45:51;;;;;;;24.88;14.40;;;;;;;-2.16;100.00;95036.56;4974950;28;20102;-62
2022/03/03 04:48:16;;;;;;;28.90;16.40;;;;;;;-2.16;100.00;95026.88;4975979;28;20046;-62
2022/03/03 04:51:08;;;;;;;29.52;15.43;;;;;;;-2.19;100.00;95036.91;4976004;28;20054;-62
2022/03/03 04:53:33;;;;;;;26.02;14.57;;;;;;;-2.21;100.00;95036.28;4975761;28;20030;-62
2022/03/03 04:55:58;;;;;;;27.90;15.50;;;;;;;-2.23;100.00;95025.97;4974875;23;20059;-60
2022/03/03 04:58:25;;;;;;;37.70;17.02;;;;;;;-2.17;100.00;95037.53;4955645;28;20524;-59
2022/03/03 05:00:54;;;;;;;32.28;17.00;;;;;;;-2.03;100.00;95036.66;4956573;28;20030;-61
2022/03/03 05:03:20;;;;;;;34.80;16.73;;;;;;;-1.86;100.00;95040.63;4971336;28;20434;-61
2022/03/03 05:05:48;;;;;;;29.75;16.33;;;;;;;-1.73;100.00;95039.16;4971451;28;20058;-61
2022/03/03 05:08:16;;;;;;;28.85;16.55;;;;;;;-1.65;100.00;95036.38;4974468;28;20077;-60
2022/03/03 05:10:42;;;;;;;27.30;15.13;;;;;;;-1.58;100.00;95042.50;4975673;28;20033;-61
2022/03/03 05:13:07;;;;;;;30.60;16.77;;;;;;;-1.54;100.00;95034.03;4990592;28;20027;-61
2022/03/03 05:15:32;;;;;;;35.35;16.85;;;;;;;-1.56;100.00;95032.59;4975381;28;20022;-61
2022/03/03 05:17:58;;;;;;;27.60;15.38;;;;;;;-1.64;100.00;95030.91;4974282;28;20030;-61
2022/03/03 05:20:26;;;;;;;29.60;15.82;;;;;;;-1.72;100.00;95022.41;4975557;28;20500;-61
2022/03/03 05:22:52;;;;;;;28.80;16.08;;;;;;;-1.81;100.00;95019.91;4975420;28;20026;-61
2022/03/03 05:25:17;;;;;;;29.17;15.52;;;;;;;-1.89;100.00;95017.41;4975410;28;20098;-60
2022/03/03 05:27:50;;;;;;;24.88;15.02;;;;;;;-1.98;100.00;95015.09;4974088;28;20027;-61
2022/03/03 05:30:16;;;;;;;29.05;15.77;;;;;;;-2.07;100.00;95017.03;4975292;28;20122;-60
2022/03/03 05:32:53;;;;;;;28.55;15.43;;;;;;;-2.18;100.00;95014.91;4975354;28;20552;-61
2022/03/03 05:35:19;;;;;;;28.02;15.10;;;;;;;-2.27;100.00;95014.25;4975046;28;20058;-61
2022/03/03 05:37:48;;;;;;;28.65;15.23;;;;;;;-2.33;100.00;95018.41;4974134;28;20031;-61
2022/03/03 05:40:14;;;;;;;28.08;15.25;;;;;;;-2.36;100.00;95020.63;4975165;28;20033;-61
2022/03/03 05:42:40;;;;;;;29.05;15.98;;;;;;;-2.38;100.00;95026.06;4973841;28;20118;-60
2022/03/03 05:45:06;;;;;;;27.75;15.70;;;;;;;-2.42;100.00;95022.16;4975036;28;20109;-59
2022/03/03 05:47:33;;;;;;;27.25;15.20;;;;;;;-2.47;100.00;95021.09;4975067;28;20035;-59
2022/03/03 05:50:00;;;;;;;30.48;15.48;;;;;;;-2.57;100.00;95024.03;4973792;28;20134;-59
2022/03/03 05:52:26;;;;;;;29.60;15.63;;;;;;;-2.68;100.00;95020.06;4974381;28;20501;-59
2022/03/03 05:54:52;;;;;;;27.55;14.52;;;;;;;-2.75;100.00;95021.78;4981279;28;20078;-59
2022/03/03 05:57:39;;;;;;;30.10;15.30;;;;;;;-2.85;100.00;95020.47;4988279;28;20477;-60
2022/03/03 06:00:17;;;;;;;27.15;14.65;;;;;;;-2.90;100.00;95022.84;5009274;28;20031;-60
2022/03/03 06:03:01;;;;;;;33.17;15.32;;;;;;;-2.96;100.00;95025.19;4994168;28;20480;-61
2022/03/03 06:05:28;;;;;;;32.38;14.80;;;;;;;-2.99;100.00;95028.16;5008556;28;20037;-59
2022/03/03 06:08:06;;;;;;;29.92;16.15;;;;;;;-3.05;100.00;95036.75;4992760;28;20054;-60
2022/03/03 06:10:36;;;;;;;26.75;15.15;;;;;;;-3.06;100.00;95040.38;4994067;28;20027;-58
2022/03/03 06:13:22;;;;;;;27.92;15.90;;;;;;;-3.05;100.00;95041.16;4993965;28;20380;-59
2022/03/03 06:15:54;;;;;;;30.15;16.10;;;;;;;-3.03;100.00;95049.69;4993753;28;20029;-59
2022/03/03 06:18:24;;;;;;;31.45;16.90;;;;;;;-3.04;100.00;95053.28;4988257;28;20397;-58
2022/03/03 06:20:50;;;;;;;30.77;16.17;;;;;;;-2.98;100.00;95053.38;4993017;28;20042;-58
2022/03/03 06:23:16;;;;;;;28.85;16.00;;;;;;;-2.92;100.00;95055.28;4993053;28;20029;-60
2022/03/03 06:25:43;;;;;;;31.52;16.20;;;;;;;-2.87;100.00;95059.16;4992279;28;20030;-58
2022/03/03 06:28:09;;;;;;;31.60;16.30;;;;;;;-2.85;100.00;95063.22;4992992;28;20116;-59
2022/03/03 06:30:35;;;;;;;33.50;16.50;;;;;;;-2.84;100.00;95069.25;4992235;28;20501;-59
2022/03/03 06:33:09;;;;;;;29.55;16.08;;;;;;;-2.85;100.00;95078.94;4989622;28;20416;-60
2022/03/03 06:35:38;;;;;;;30.17;16.98;;;;;;;-2.79;100.00;95078.22;4992169;28;20022;-59
2022/03/03 06:38:06;;;;;;;29.98;16.42;;;;;;;-2.70;100.00;95086.81;4992291;28;20397;-60
2022/03/03 06:40:32;;;;;;;29.30;16.98;;;;;;;-2.61;100.00;95090.91;4992098;28;20105;-59
2022/03/03 06:43:00;;;;;;;30.75;16.52;;;;;;;-2.56;100.00;95091.19;4997941;28;20023;-59
2022/03/03 06:45:27;;;;;;;29.88;16.67;;;;;;;-2.48;100.00;95090.28;4993313;28;20034;-60
2022/03/03 06:47:57;;;;;;;30.90;17.33;;;;;;;-2.41;100.00;95083.28;4991065;28;20037;-59
2022/03/03 06:50:22;;;;;;;30.13;16.90;;;;;;;-2.31;100.00;95085.63;4993241;28;20037;-58
2022/03/03 06:52:49;;;;;;;33.65;16.67;;;;;;;-2.27;100.00;95076.41;4993359;28;20030;-59
2022/03/03 06:55:20;;;;;;;28.63;16.20;;;;;;;-2.24;100.00;95089.13;4991519;28;20153;-58
2022/03/03 06:57:48;;;;;;;29.60;16.40;;;;;;;-2.18;100.00;95088.38;5006023;28;20521;-64
2022/03/03 07:00:18;;;;;;;35.05;17.80;;;;;;;-2.12;100.00;95083.22;5013280;28;20026;-59
2022/03/03 07:02:46;;;;;;;30.40;17.65;;;;;;;-2.02;100.00;95087.34;4966888;28;20042;-59
2022/03/03 07:05:12;;;;;;;34.08;17.92;;;;;;;-1.94;100.00;95085.41;5019000;28;20014;-59
2022/03/03 07:07:43;;;;;;;33.13;17.80;;;;;;;-1.83;100.00;95084.09;4976066;28;20022;-59
2022/03/03 07:10:11;;;;;;;30.88;17.67;;;;;;;-1.71;100.00;95090.47;5009041;28;20053;-59
2022/03/03 07:12:36;;;;;;;32.83;16.58;;;;;;;-1.64;100.00;95090.50;4992964;28;20440;-61
2022/03/03 07:15:02;;;;;;;35.70;16.33;;;;;;;-1.54;100.00;95088.38;4992841;28;20036;-60
2022/03/03 07:18:02;;;;;;;32.30;17.98;;;;;;;-1.46;100.00;95083.81;4992431;28;20022;-61
2022/03/03 07:20:35;;;;;;;30.45;16.25;;;;;;;-1.41;100.00;95088.50;4992183;28;20030;-59
2022/03/03 07:23:13;;;;;;;31.10;16.35;;;;;;;-1.40;100.00;95081.44;4992970;28;20052;-60
2022/03/03 07:25:41;;;;;;;28.73;15.50;;;;;;;-1.40;100.00;95082.25;4974457;28;20026;-58
2022/03/03 07:28:14;;;;;;;31.38;16.67;;;;;;;-1.35;100.00;95084.28;4992328;28;20045;-61
2022/03/03 07:30:44;;;;;;;31.65;17.67;;;;;;;-1.26;100.00;95075.25;4992815;28;20026;-60
2022/03/03 07:33:33;;;;;;;31.85;16.70;;;;;;;-1.12;100.00;95073.53;4937750;28;20049;-61
2022/03/03 07:36:02;;;;;;;32.22;17.35;;;;;;;-0.95;100.00;95067.78;4999885;28;20069;-61
2022/03/03 07:38:34;;;;;;;32.13;16.98;;;;;;;-0.70;100.00;95072.53;4992948;28;20018;-61
2022/03/03 07:41:02;;;;;;;34.22;17.98;;;;;;;-0.43;100.00;95069.03;5007878;28;20485;-62
2022/03/03 07:43:28;;;;;;;33.67;17.98;;;;;;;-0.21;100.00;95061.00;4992598;28;20059;-63
2022/03/03 07:46:11;;;;;;;35.03;17.95;;;;;;;0.03;100.00;95060.44;4992805;28;20551;-63
2022/03/03 07:48:38;;;;;;;30.05;17.23;;;;;;;0.33;100.00;95067.97;4991658;28;20030;-64
2022/03/03 07:51:04;;;;;;;29.45;16.50;;;;;;;0.60;100.00;95058.25;4990359;28;20124;-64
2022/03/03 07:53:29;;;;;;;33.00;18.40;;;;;;;0.95;100.00;95056.97;4964848;28;21800;-63
2022/03/03 07:56:00;;;;;;;31.65;17.52;;;;;;;1.34;100.00;95050.00;4991919;28;20069;-63
2022/03/03 07:58:33;;;;;;;32.00;17.45;;;;;;;1.78;100.00;95040.47;4992657;28;20481;-63
2022/03/03 08:01:01;;;;;;;29.70;16.85;;;;;;;2.20;100.00;95031.88;5007974;28;20057;-63
2022/03/03 08:03:27;;;;;;;31.13;16.98;;;;;;;2.65;100.00;95018.50;4992857;28;20038;-63
2022/03/03 08:05:58;;;;;;;32.55;17.13;;;;;;;3.07;100.00;94998.34;4992862;28;20465;-63
2022/03/03 08:08:29;;;;;;;30.27;16.67;;;;;;;3.47;100.00;94977.53;4992551;28;20425;-63
2022/03/03 08:10:58;;;;;;;33.60;16.00;;;;;;;3.82;100.00;94945.06;4992649;28;20030;-63
2022/03/03 08:13:27;;;;;;;28.65;16.67;;;;;;;4.14;100.00;94916.47;4994433;28;20081;-63
2022/03/03 08:15:53;;;;;;;29.13;16.60;;;;;;;4.46;100.00;94889.63;4993336;28;20052;-63
2022/03/03 08:18:25;;;;;;;28.80;16.35;;;;;;;4.76;100.00;94847.81;4985944;28;20133;-63
2022/03/03 08:20:51;;;;;;;34.77;16.80;;;;;;;5.04;100.00;94817.03;4994514;28;20062;-62
2022/03/03 08:23:17;;;;;;;35.22;16.40;;;;;;;5.35;100.00;94792.66;4978568;28;20438;-63
2022/03/03 08:25:47;;;;;;;26.83;15.48;;;;;;;5.68;100.00;94761.84;4995758;28;20022;-63
2022/03/03 08:28:12;;;;;;;27.98;16.33;;;;;;;5.95;100.00;94744.22;4995741;28;20030;-63
2022/03/03 08:30:38;;;;;;;27.02;14.90;;;;;;;6.17;100.00;94725.63;4995312;28;20037;-63
2022/03/03 08:33:17;;;;;;;29.20;16.48;;;;;;;6.48;100.00;94726.03;4995761;28;20110;-63
2022/03/03 08:35:54;;;;;;;25.77;15.25;;;;;;;6.69;100.00;94725.22;4994927;28;20560;-63
2022/03/03 08:38:31;;;;;;;27.35;14.65;;;;;;;6.84;100.00;94744.03;4995771;28;20110;-63
2022/03/03 08:41:01;;;;;;;24.15;14.57;;;;;;;6.99;100.00;94780.66;4995530;28;20392;-63
2022/03/03 08:43:28;;;;;;;23.35;14.18;;;;;;;7.22;100.00;94825.66;4994158;28;20389;-63
2022/03/03 08:46:04;;;;;;;25.95;14.75;;;;;;;7.44;100.00;94860.28;4995205;28;20026;-63
2022/03/03 08:48:32;;;;;;;24.88;14.15;;;;;;;7.63;100.00;94914.03;5010477;28;20121;-63
2022/03/03 08:51:02;;;;;;;24.80;14.20;;;;;;;7.84;100.00;94945.19;4995275;28;20018;-63
2022/03/03 08:53:28;;;;;;;24.33;14.43;;;;;;;7.95;100.00;94979.97;4995438;28;20547;-62
2022/03/03 08:55:58;;;;;;;22.23;14.43;;;;;;;8.00;100.00;95018.16;4995078;28;20076;-62
2022/03/03 08:58:25;;;;;;;23.58;13.70;;;;;;;8.04;100.00;95045.16;4995101;28;20997;-62
2022/03/03 09:00:50;;;;;;;26.33;14.60;;;;;;;8.19;100.00;95069.34;4995396;28;20030;-62
2022/03/03 09:03:22;;;;;;;22.83;14.52;;;;;;;8.32;100.00;95105.50;4993693;28;20172;-62
2022/03/03 09:05:49;;;;;;;22.83;14.07;;;;;;;8.52;100.00;95128.97;4995160;28;20057;-61
2022/03/03 09:08:17;;;;;;;25.33;14.07;;;;;;;8.72;100.00;95153.22;4994857;28;20034;-61
2022/03/03 09:10:43;;;;;;;24.80;14.57;;;;;;;8.75;100.00;95178.59;4995012;28;20037;-62
2022/03/03 09:13:09;;;;;;;23.98;14.65;;;;;;;8.84;100.00;95190.47;4994606;28;20109;-62
2022/03/03 09:15:43;;;;;;;22.30;14.30;;;;;;;8.77;100.00;95208.53;4994916;28;20390;-62
2022/03/03 09:18:09;;;;;;;21.50;13.70;;;;;;;8.92;100.00;95219.41;4994864;28;20361;-61
2022/03/03 09:20:37;;;;;;;25.52;13.45;;;;;;;8.99;100.00;95234.16;4993485;28;20533;-62
2022/03/03 09:23:03;;;;;;;19.27;12.65;;;;;;;9.18;100.00;95242.66;4994433;28;20029;-62
2022/03/03 09:25:29;;;;;;;22.55;13.27;;;;;;;9.37;100.00;95269.03;4994566;28;20615;-62
2022/03/03 09:27:54;;;;;;;19.98;12.93;;;;;;;9.68;100.00;95288.84;4993609;28;20030;-63
2022/03/03 09:30:21;;;;;;;21.25;13.93;;;;;;;9.86;100.00;95297.28;4993259;28;20030;-62
2022/03/03 09:32:47;;;;;;;22.77;13.85;;;;;;;10.09;100.00;95322.94;4993092;28;20026;-62
2022/03/03 09:35:14;;;;;;;27.63;13.05;;;;;;;10.39;100.00;95340.28;4989185;28;20432;-63
2022/03/03 09:37:40;;;;;;;22.30;13.40;;;;;;;10.63;100.00;95346.06;4991882;28;20147;-62
2022/03/03 09:40:08;;;;;;;22.73;14.50;;;;;;;10.83;100.00;95345.38;4991934;28;20046;-63
2022/03/03 09:42:34;;;;;;;21.05;14.30;;;;;;;10.97;100.00;95351.91;5020777;28;20037;-63
2022/03/03 09:45:08;;;;;;;24.92;14.35;;;;;;;11.10;100.00;95353.31;4993160;28;20018;-63
2022/03/03 09:47:38;;;;;;;19.73;13.45;;;;;;;11.21;99.91;95363.81;5005630;28;20033;-63
2022/03/03 09:50:06;;;;;;;24.38;13.70;;;;;;;11.18;99.39;95366.19;4991098;28;20025;-62
2022/03/03 09:52:31;;;;;;;25.33;15.23;;;;;;;11.08;98.62;95366.97;4961462;28;20030;-62
2022/03/03 09:54:57;;;;;;;22.63;14.15;;;;;;;11.21;98.91;95369.19;4993099;28;20409;-62
2022/03/03 09:57:24;;;;;;;26.73;15.88;;;;;;;11.29;97.13;95374.06;4993367;28;20026;-63
2022/03/03 09:59:53;;;;;;;24.23;14.77;;;;;;;11.27;95.75;95380.72;4993243;28;20428;-62
2022/03/03 10:02:21;;;;;;;19.42;13.50;;;;;;;11.45;94.53;95382.94;5007674;28;20401;-63
2022/03/03 10:04:56;;;;;;;20.00;14.43;;;;;;;11.63;92.32;95386.25;4992188;28;20031;-63
2022/03/03 10:07:28;;;;;;;20.50;13.43;;;;;;;11.71;91.47;95394.56;4979877;28;20065;-63
2022/03/03 10:09:59;;;;;;;21.67;13.07;;;;;;;11.65;90.24;95403.69;4991959;28;20381;-63
2022/03/03 10:12:29;;;;;;;22.33;12.73;;;;;;;11.89;87.82;95404.84;4990936;28;20037;-62
2022/03/03 10:14:58;;;;;;;19.20;12.18;;;;;;;12.24;84.24;95424.78;4991271;28;20493;-63
2022/03/03 10:17:38;;;;;;;24.48;12.38;;;;;;;12.65;82.43;95420.25;4992272;28;20073;-63
2022/03/03 10:20:06;;;;;;;21.13;12.88;;;;;;;12.61;76.34;95435.31;4992954;28;20105;-63
2022/03/03 10:22:47;;;;;;;23.15;12.10;;;;;;;12.92;75.68;95444.16;4993122;28;20030;-63
2022/03/03 10:25:35;;;;;;;19.02;12.13;;;;;;;13.08;73.47;95439.56;4975693;28;20026;-63
2022/03/03 10:28:15;;;;;;;19.50;12.20;;;;;;;13.21;71.75;95451.66;4992292;28;20034;-62
2022/03/03 10:30:59;;;;;;;22.17;14.00;;;;;;;13.22;70.63;95442.50;4992298;28;20064;-62
2022/03/03 10:33:30;;;;;;;20.90;12.88;;;;;;;13.07;70.45;95432.56;5012650;28;20477;-60
2022/03/03 10:36:01;;;;;;;21.25;13.07;;;;;;;13.34;73.48;95435.75;4991720;28;20034;-62
2022/03/03 10:38:28;;;;;;;22.85;13.68;;;;;;;13.71;71.09;95426.50;4990332;28;20030;-62
2022/03/03 10:40:53;;;;;;;24.02;15.65;;;;;;;13.79;71.04;95425.94;4992301;28;20125;-61
2022/03/03 10:43:19;;;;;;;26.00;14.95;;;;;;;13.53;71.15;95424.41;4977829;28;20089;-63
2022/03/03 10:45:59;;;;;;;25.42;15.10;;;;;;;13.71;73.25;95420.31;4974516;28;20077;-63
2022/03/03 10:48:26;;;;;;;25.65;15.52;;;;;;;13.66;70.28;95428.38;4991780;28;20033;-63
2022/03/03 10:50:58;;;;;;;22.20;14.85;;;;;;;13.91;71.80;95422.91;4981573;28;20028;-63
2022/03/03 10:53:26;;;;;;;23.70;15.07;;;;;;;14.16;70.63;95416.56;4991021;28;20465;-63
2022/03/03 10:56:14;;;;;;;22.98;14.13;;;;;;;14.41;66.69;95421.78;5003326;23;20113;-68
2022/03/03 10:59:03;;;;;;;23.90;15.38;;;;;;;14.49;65.62;95417.72;4990457;28;20362;-68
2022/03/03 11:01:30;;;;;;;26.42;15.80;;;;;;;14.70;64.83;95412.97;4987473;28;20064;-68
2022/03/03 11:04:00;;;;;;;28.42;16.08;;;;;;;14.82;65.48;95404.50;4992592;28;20026;-67
2022/03/03 11:06:28;;;;;;;24.55;16.20;;;;;;;14.94;67.56;95397.66;4991011;28;20030;-67
2022/03/03 11:08:55;;;;;;;24.67;16.23;;;;;;;15.03;68.17;95395.94;4973562;28;20022;-68
2022/03/03 11:11:22;;;;;;;27.50;16.00;;;;;;;15.00;68.45;95396.53;4973515;28;20073;-68
2022/03/03 11:13:49;;;;;;;26.33;16.60;;;;;;;15.06;69.14;95389.16;4972902;28;20038;-68
2022/03/03 11:16:17;;;;;;;25.10;16.45;;;;;;;15.26;67.67;95377.34;4973359;28;20038;-68
2022/03/03 11:18:43;;;;;;;25.80;16.75;;;;;;;15.13;67.38;95380.75;4973544;28;20027;-68
2022/03/03 11:21:13;;;;;;;25.88;16.52;;;;;;;15.13;67.44;95378.84;4973528;28;20027;-68
2022/03/03 11:23:40;;;;;;;24.55;16.13;;;;;;;15.37;65.88;95373.44;4973583;28;20027;-68
2022/03/03 11:26:09;;;;;;;25.33;16.95;;;;;;;15.52;64.61;95373.28;4973258;28;20019;-68